Biddulph, United Kingdom
Current Conditions -  °F | °C
As of 10:50 AM on Wednesday 22 Oct 2014 (Local Time) from EGCC Reporting Station
Broken Clouds Broken Clouds  
Wind Chill: 54°   Ceiling: 2100
Heat Index: 54°   Visibility: 6mi
Dew Point: 46°   Wind: 13mph
Humidity: 77%   Direction: 280°W
Pressure: 30.21"   Gusts: NA
Location:  53.12°N, 2.18°W
Report Text: EGCC 220950Z 28011KT 190V300 9999 BKN021 12/08 Q1023
Loading
Personal Weather Stations






























Interactive Weather Map
Tropical Storm Tracking
New forecast layout! Learn more

10-Day Weather Forecast

Advertisements
Track Severe Weather on mobile